Wallaceburg, Canada
Current Conditions -  °F | °C
As of 6:15 AM on Monday 20 Oct 2014 (Local Time) from KMTC Reporting Station
Light Rain Light Rain  
Wind Chill: 42°   Ceiling: 3800
Heat Index: 46°   Visibility: 10mi
Dew Point: 43°   Wind: 9mph
Humidity: 87%   Direction: 210°SSW
Pressure: 29.85"   Gusts: NA
Location:  42.58°N, 82.37°W
Report Text: KMTC 201015Z AUTO 21008KT 10SM -RA OVC038 08/06 A2985 RMK AO2
Loading
Personal Weather Stations






























Interactive Weather Map
Tropical Storm Tracking
New forecast layout! Learn more

10-Day Weather Forecast

Advertisements
Track Severe Weather on mobile